sensor_id;sensor_type;location;lat;lon;timestamp;P1;durP1;ratioP1;P2;durP2;ratioP2
64186;SDS011;50491;39.484;-8.540;2023-06-05T00:00:02;6.00;;;4.68;;
64186;SDS011;50491;39.484;-8.540;2023-06-05T00:04:31;6.28;;;4.57;;
64186;SDS011;50491;39.484;-8.540;2023-06-05T00:06:51;9.77;;;4.75;;
64186;SDS011;50491;39.484;-8.540;2023-06-05T00:09:11;7.47;;;4.85;;
64186;SDS011;50491;39.484;-8.540;2023-06-05T00:11:14;5.80;;;4.32;;
64186;SDS011;50491;39.484;-8.540;2023-06-05T00:13:15;6.35;;;4.95;;
64186;SDS011;50491;39.484;-8.540;2023-06-05T00:15:34;8.50;;;4.75;;
64186;SDS011;50491;39.484;-8.540;2023-06-05T00:17:36;8.32;;;4.75;;
64186;SDS011;50491;39.484;-8.540;2023-06-05T00:19:37;7.55;;;4.93;;
64186;SDS011;50491;39.484;-8.540;2023-06-05T00:24:53;13.63;;;5.18;;
64186;SDS011;50491;39.484;-8.540;2023-06-05T00:26:53;8.45;;;4.80;;
64186;SDS011;50491;39.484;-8.540;2023-06-05T00:29:00;6.55;;;4.10;;
64186;SDS011;50491;39.484;-8.540;2023-06-05T00:31:19;6.40;;;4.18;;
64186;SDS011;50491;39.484;-8.540;2023-06-05T00:33:21;10.55;;;4.75;;
64186;SDS011;50491;39.484;-8.540;2023-06-05T00:35:40;8.43;;;4.55;;
64186;SDS011;50491;39.484;-8.540;2023-06-05T00:38:00;9.90;;;5.05;;
64186;SDS011;50491;39.484;-8.540;2023-06-05T00:40:38;7.10;;;4.53;;
64186;SDS011;50491;39.484;-8.540;2023-06-05T00:42:58;10.45;;;5.03;;
64186;SDS011;50491;39.484;-8.540;2023-06-05T00:45:36;8.38;;;4.93;;
64186;SDS011;50491;39.484;-8.540;2023-06-05T00:47:37;6.85;;;4.50;;
64186;SDS011;50491;39.484;-8.540;2023-06-05T00:49:37;7.30;;;4.43;;
64186;SDS011;50491;39.484;-8.540;2023-06-05T00:52:03;6.35;;;4.03;;
64186;SDS011;50491;39.484;-8.540;2023-06-05T00:54:04;5.28;;;3.88;;
64186;SDS011;50491;39.484;-8.540;2023-06-05T00:59:07;9.55;;;5.50;;
64186;SDS011;50491;39.484;-8.540;2023-06-05T01:04:06;9.73;;;5.03;;
64186;SDS011;50491;39.484;-8.540;2023-06-05T01:06:25;6.72;;;4.57;;
64186;SDS011;50491;39.484;-8.540;2023-06-05T01:08:32;7.85;;;5.05;;
64186;SDS011;50491;39.484;-8.540;2023-06-05T01:10:57;12.00;;;5.38;;
64186;SDS011;50491;39.484;-8.540;2023-06-05T01:13:04;8.45;;;5.30;;
64186;SDS011;50491;39.484;-8.540;2023-06-05T01:15:18;10.70;;;6.00;;
64186;SDS011;50491;39.484;-8.540;2023-06-05T01:17:19;10.77;;;5.68;;
64186;SDS011;50491;39.484;-8.540;2023-06-05T01:19:20;11.73;;;6.13;;
64186;SDS011;50491;39.484;-8.540;2023-06-05T01:21:43;9.88;;;5.85;;
64186;SDS011;50491;39.484;-8.540;2023-06-05T01:23:44;10.23;;;6.05;;
64186;SDS011;50491;39.484;-8.540;2023-06-05T01:25:45;9.88;;;5.70;;
64186;SDS011;50491;39.484;-8.540;2023-06-05T01:27:47;10.48;;;6.25;;
64186;SDS011;50491;39.484;-8.540;2023-06-05T01:31:57;8.90;;;5.18;;
64186;SDS011;50491;39.484;-8.540;2023-06-05T01:34:02;9.52;;;5.38;;
64186;SDS011;50491;39.484;-8.540;2023-06-05T01:36:25;9.25;;;5.30;;
64186;SDS011;50491;39.484;-8.540;2023-06-05T01:38:45;10.07;;;6.22;;
64186;SDS011;50491;39.484;-8.540;2023-06-05T01:41:11;9.60;;;5.93;;
64186;SDS011;50491;39.484;-8.540;2023-06-05T01:43:12;14.90;;;6.82;;
64186;SDS011;50491;39.484;-8.540;2023-06-05T01:45:32;8.50;;;5.78;;
64186;SDS011;50491;39.484;-8.540;2023-06-05T01:47:50;11.77;;;6.35;;
64186;SDS011;50491;39.484;-8.540;2023-06-05T01:49:52;12.18;;;6.50;;
64186;SDS011;50491;39.484;-8.540;2023-06-05T01:51:52;10.73;;;6.50;;
64186;SDS011;50491;39.484;-8.540;2023-06-05T01:53:55;10.80;;;6.05;;
64186;SDS011;50491;39.484;-8.540;2023-06-05T01:55:57;10.43;;;6.28;;
64186;SDS011;50491;39.484;-8.540;2023-06-05T01:58:04;10.75;;;5.70;;
64186;SDS011;50491;39.484;-8.540;2023-06-05T02:00:23;10.55;;;5.53;;
64186;SDS011;50491;39.484;-8.540;2023-06-05T02:02:43;7.70;;;5.22;;
64186;SDS011;50491;39.484;-8.540;2023-06-05T02:05:04;8.35;;;5.47;;
64186;SDS011;50491;39.484;-8.540;2023-06-05T02:07:05;9.40;;;5.40;;
64186;SDS011;50491;39.484;-8.540;2023-06-05T02:09:25;11.00;;;5.88;;
64186;SDS011;50491;39.484;-8.540;2023-06-05T02:11:45;9.60;;;5.72;;
64186;SDS011;50491;39.484;-8.540;2023-06-05T02:13:47;10.40;;;6.05;;
64186;SDS011;50491;39.484;-8.540;2023-06-05T02:15:53;9.93;;;6.10;;
64186;SDS011;50491;39.484;-8.540;2023-06-05T02:17:56;14.18;;;5.85;;
64186;SDS011;50491;39.484;-8.540;2023-06-05T02:19:57;9.35;;;6.22;;
64186;SDS011;50491;39.484;-8.540;2023-06-05T02:21:58;10.18;;;7.45;;
64186;SDS011;50491;39.484;-8.540;2023-06-05T02:24:17;14.68;;;5.60;;
64186;SDS011;50491;39.484;-8.540;2023-06-05T02:26:46;9.88;;;6.70;;
64186;SDS011;50491;39.484;-8.540;2023-06-05T02:29:05;10.20;;;6.55;;
64186;SDS011;50491;39.484;-8.540;2023-06-05T02:31:25;8.32;;;5.18;;
64186;SDS011;50491;39.484;-8.540;2023-06-05T02:33:27;10.68;;;6.40;;
64186;SDS011;50491;39.484;-8.540;2023-06-05T02:35:46;9.90;;;5.53;;
64186;SDS011;50491;39.484;-8.540;2023-06-05T02:37:47;9.75;;;5.22;;
64186;SDS011;50491;39.484;-8.540;2023-06-05T02:40:13;8.55;;;5.25;;
64186;SDS011;50491;39.484;-8.540;2023-06-05T02:42:20;8.73;;;5.32;;
64186;SDS011;50491;39.484;-8.540;2023-06-05T02:44:45;8.82;;;5.80;;
64186;SDS011;50491;39.484;-8.540;2023-06-05T02:46:46;9.23;;;5.90;;
64186;SDS011;50491;39.484;-8.540;2023-06-05T02:48:54;12.13;;;5.78;;
64186;SDS011;50491;39.484;-8.540;2023-06-05T02:51:20;9.43;;;6.03;;
64186;SDS011;50491;39.484;-8.540;2023-06-05T02:53:21;11.05;;;5.55;;
64186;SDS011;50491;39.484;-8.540;2023-06-05T02:55:22;12.45;;;5.85;;
64186;SDS011;50491;39.484;-8.540;2023-06-05T02:57:24;9.75;;;5.93;;
64186;SDS011;50491;39.484;-8.540;2023-06-05T02:59:45;9.27;;;5.97;;
64186;SDS011;50491;39.484;-8.540;2023-06-05T03:01:51;10.45;;;6.00;;
64186;SDS011;50491;39.484;-8.540;2023-06-05T03:03:52;9.10;;;5.78;;
64186;SDS011;50491;39.484;-8.540;2023-06-05T03:05:58;9.82;;;5.15;;
64186;SDS011;50491;39.484;-8.540;2023-06-05T03:08:23;8.77;;;5.85;;
64186;SDS011;50491;39.484;-8.540;2023-06-05T03:15:53;12.07;;;5.90;;
64186;SDS011;50491;39.484;-8.540;2023-06-05T03:18:15;9.00;;;5.32;;
64186;SDS011;50491;39.484;-8.540;2023-06-05T03:20:23;9.38;;;5.50;;
64186;SDS011;50491;39.484;-8.540;2023-06-05T03:23:00;9.60;;;6.65;;
64186;SDS011;50491;39.484;-8.540;2023-06-05T03:25:20;8.50;;;5.07;;
64186;SDS011;50491;39.484;-8.540;2023-06-05T03:27:39;8.05;;;5.65;;
64186;SDS011;50491;39.484;-8.540;2023-06-05T03:29:58;9.00;;;6.03;;
64186;SDS011;50491;39.484;-8.540;2023-06-05T03:31:59;14.35;;;7.20;;
64186;SDS011;50491;39.484;-8.540;2023-06-05T03:34:18;12.50;;;6.45;;
64186;SDS011;50491;39.484;-8.540;2023-06-05T03:36:37;9.32;;;5.70;;
64186;SDS011;50491;39.484;-8.540;2023-06-05T03:38:41;12.73;;;7.13;;
64186;SDS011;50491;39.484;-8.540;2023-06-05T03:41:01;11.45;;;6.65;;
64186;SDS011;50491;39.484;-8.540;2023-06-05T03:43:36;12.60;;;6.43;;
64186;SDS011;50491;39.484;-8.540;2023-06-05T03:45:37;9.80;;;6.45;;
64186;SDS011;50491;39.484;-8.540;2023-06-05T03:47:41;10.65;;;6.43;;
64186;SDS011;50491;39.484;-8.540;2023-06-05T03:49:44;10.95;;;5.90;;
64186;SDS011;50491;39.484;-8.540;2023-06-05T03:52:06;12.95;;;6.90;;
64186;SDS011;50491;39.484;-8.540;2023-06-05T03:54:29;12.50;;;6.35;;
64186;SDS011;50491;39.484;-8.540;2023-06-05T03:56:52;10.65;;;6.32;;
64186;SDS011;50491;39.484;-8.540;2023-06-05T04:04:51;11.85;;;6.20;;
64186;SDS011;50491;39.484;-8.540;2023-06-05T04:06:54;11.15;;;6.70;;
64186;SDS011;50491;39.484;-8.540;2023-06-05T04:09:14;11.82;;;6.40;;
64186;SDS011;50491;39.484;-8.540;2023-06-05T04:11:17;11.75;;;6.93;;
64186;SDS011;50491;39.484;-8.540;2023-06-05T04:13:37;12.98;;;7.05;;
64186;SDS011;50491;39.484;-8.540;2023-06-05T04:16:01;10.07;;;5.97;;
64186;SDS011;50491;39.484;-8.540;2023-06-05T04:18:21;10.35;;;6.35;;
64186;SDS011;50491;39.484;-8.540;2023-06-05T04:23:18;11.35;;;6.53;;
64186;SDS011;50491;39.484;-8.540;2023-06-05T04:25:19;13.18;;;7.00;;
64186;SDS011;50491;39.484;-8.540;2023-06-05T04:27:39;13.25;;;7.65;;
64186;SDS011;50491;39.484;-8.540;2023-06-05T04:29:59;13.60;;;7.82;;
64186;SDS011;50491;39.484;-8.540;2023-06-05T04:32:20;13.68;;;7.75;;
64186;SDS011;50491;39.484;-8.540;2023-06-05T04:34:20;11.40;;;7.03;;
64186;SDS011;50491;39.484;-8.540;2023-06-05T04:36:21;11.57;;;6.70;;
64186;SDS011;50491;39.484;-8.540;2023-06-05T04:41:21;10.55;;;6.60;;
64186;SDS011;50491;39.484;-8.540;2023-06-05T04:43:28;13.98;;;7.00;;
64186;SDS011;50491;39.484;-8.540;2023-06-05T04:45:47;12.00;;;6.57;;
64186;SDS011;50491;39.484;-8.540;2023-06-05T04:48:07;12.32;;;7.63;;
64186;SDS011;50491;39.484;-8.540;2023-06-05T04:50:08;12.70;;;6.82;;
64186;SDS011;50491;39.484;-8.540;2023-06-05T04:54:15;16.20;;;7.07;;
64186;SDS011;50491;39.484;-8.540;2023-06-05T04:56:16;11.85;;;7.60;;
64186;SDS011;50491;39.484;-8.540;2023-06-05T04:58:17;11.55;;;6.43;;
64186;SDS011;50491;39.484;-8.540;2023-06-05T05:00:20;14.40;;;7.38;;
64186;SDS011;50491;39.484;-8.540;2023-06-05T05:02:23;11.52;;;6.60;;
64186;SDS011;50491;39.484;-8.540;2023-06-05T05:04:23;11.57;;;7.57;;
64186;SDS011;50491;39.484;-8.540;2023-06-05T05:06:43;11.63;;;5.95;;
64186;SDS011;50491;39.484;-8.540;2023-06-05T05:09:06;12.32;;;7.10;;
64186;SDS011;50491;39.484;-8.540;2023-06-05T05:11:06;11.30;;;6.65;;
64186;SDS011;50491;39.484;-8.540;2023-06-05T05:13:07;11.50;;;7.07;;
64186;SDS011;50491;39.484;-8.540;2023-06-05T05:15:27;14.30;;;7.20;;
64186;SDS011;50491;39.484;-8.540;2023-06-05T05:17:30;18.48;;;6.95;;
64186;SDS011;50491;39.484;-8.540;2023-06-05T05:19:49;12.73;;;7.00;;
64186;SDS011;50491;39.484;-8.540;2023-06-05T05:22:09;14.35;;;7.95;;
64186;SDS011;50491;39.484;-8.540;2023-06-05T05:24:09;9.52;;;6.45;;
64186;SDS011;50491;39.484;-8.540;2023-06-05T05:26:28;14.57;;;7.47;;
64186;SDS011;50491;39.484;-8.540;2023-06-05T05:28:47;13.80;;;8.00;;
64186;SDS011;50491;39.484;-8.540;2023-06-05T05:31:07;11.70;;;6.93;;
64186;SDS011;50491;39.484;-8.540;2023-06-05T05:33:10;11.88;;;7.30;;
64186;SDS011;50491;39.484;-8.540;2023-06-05T05:35:11;11.55;;;7.05;;
64186;SDS011;50491;39.484;-8.540;2023-06-05T05:37:12;11.25;;;6.93;;
64186;SDS011;50491;39.484;-8.540;2023-06-05T05:39:14;12.65;;;6.97;;
64186;SDS011;50491;39.484;-8.540;2023-06-05T05:41:15;13.75;;;8.00;;
64186;SDS011;50491;39.484;-8.540;2023-06-05T05:43:16;13.25;;;8.43;;
64186;SDS011;50491;39.484;-8.540;2023-06-05T05:45:17;11.38;;;6.55;;
64186;SDS011;50491;39.484;-8.540;2023-06-05T05:47:17;13.70;;;7.72;;
64186;SDS011;50491;39.484;-8.540;2023-06-05T05:49:18;12.30;;;7.07;;
64186;SDS011;50491;39.484;-8.540;2023-06-05T05:51:19;13.55;;;7.72;;
64186;SDS011;50491;39.484;-8.540;2023-06-05T05:53:19;18.45;;;6.80;;
64186;SDS011;50491;39.484;-8.540;2023-06-05T05:55:20;12.57;;;8.15;;
64186;SDS011;50491;39.484;-8.540;2023-06-05T05:57:39;15.70;;;7.18;;
64186;SDS011;50491;39.484;-8.540;2023-06-05T05:59:40;12.30;;;6.50;;
64186;SDS011;50491;39.484;-8.540;2023-06-05T06:04:09;9.63;;;6.38;;
64186;SDS011;50491;39.484;-8.540;2023-06-05T06:06:10;13.60;;;7.88;;
64186;SDS011;50491;39.484;-8.540;2023-06-05T06:08:12;9.05;;;6.32;;
64186;SDS011;50491;39.484;-8.540;2023-06-05T06:10:31;14.55;;;8.30;;
64186;SDS011;50491;39.484;-8.540;2023-06-05T06:12:32;11.13;;;6.55;;
64186;SDS011;50491;39.484;-8.540;2023-06-05T06:14:33;13.20;;;7.00;;
64186;SDS011;50491;39.484;-8.540;2023-06-05T06:16:52;11.65;;;6.90;;
64186;SDS011;50491;39.484;-8.540;2023-06-05T06:19:12;12.93;;;7.05;;
64186;SDS011;50491;39.484;-8.540;2023-06-05T06:21:14;12.52;;;7.65;;
64186;SDS011;50491;39.484;-8.540;2023-06-05T06:23:16;13.95;;;6.85;;
64186;SDS011;50491;39.484;-8.540;2023-06-05T06:25:17;11.35;;;6.85;;
64186;SDS011;50491;39.484;-8.540;2023-06-05T06:27:21;12.30;;;5.95;;
64186;SDS011;50491;39.484;-8.540;2023-06-05T06:29:48;11.73;;;6.80;;
64186;SDS011;50491;39.484;-8.540;2023-06-05T06:31:55;13.18;;;7.57;;
64186;SDS011;50491;39.484;-8.540;2023-06-05T06:33:55;13.18;;;7.72;;
64186;SDS011;50491;39.484;-8.540;2023-06-05T06:35:56;11.15;;;6.30;;
64186;SDS011;50491;39.484;-8.540;2023-06-05T06:37:58;12.07;;;6.95;;
64186;SDS011;50491;39.484;-8.540;2023-06-05T06:40:17;12.18;;;7.22;;
64186;SDS011;50491;39.484;-8.540;2023-06-05T06:42:37;13.45;;;7.28;;
64186;SDS011;50491;39.484;-8.540;2023-06-05T06:44:48;11.65;;;7.03;;
64186;SDS011;50491;39.484;-8.540;2023-06-05T06:47:07;11.48;;;6.05;;
64186;SDS011;50491;39.484;-8.540;2023-06-05T06:49:08;15.77;;;7.00;;
64186;SDS011;50491;39.484;-8.540;2023-06-05T06:51:09;12.93;;;6.22;;
64186;SDS011;50491;39.484;-8.540;2023-06-05T06:53:28;8.95;;;5.90;;
64186;SDS011;50491;39.484;-8.540;2023-06-05T06:55:29;10.65;;;5.35;;
64186;SDS011;50491;39.484;-8.540;2023-06-05T06:57:30;10.93;;;6.07;;
64186;SDS011;50491;39.484;-8.540;2023-06-05T06:59:49;13.02;;;6.28;;
64186;SDS011;50491;39.484;-8.540;2023-06-05T07:02:08;9.25;;;6.05;;
64186;SDS011;50491;39.484;-8.540;2023-06-05T07:04:28;11.13;;;6.32;;
64186;SDS011;50491;39.484;-8.540;2023-06-05T07:06:28;10.60;;;5.93;;
64186;SDS011;50491;39.484;-8.540;2023-06-05T07:08:29;10.90;;;6.47;;
64186;SDS011;50491;39.484;-8.540;2023-06-05T07:10:48;12.30;;;6.55;;
64186;SDS011;50491;39.484;-8.540;2023-06-05T07:13:07;12.25;;;5.88;;
64186;SDS011;50491;39.484;-8.540;2023-06-05T07:15:26;12.00;;;6.40;;
64186;SDS011;50491;39.484;-8.540;2023-06-05T07:17:27;10.13;;;5.65;;
64186;SDS011;50491;39.484;-8.540;2023-06-05T07:19:29;11.35;;;6.25;;
64186;SDS011;50491;39.484;-8.540;2023-06-05T07:21:31;11.18;;;6.10;;
64186;SDS011;50491;39.484;-8.540;2023-06-05T07:23:35;10.43;;;6.43;;
64186;SDS011;50491;39.484;-8.540;2023-06-05T07:25:36;12.20;;;6.57;;
64186;SDS011;50491;39.484;-8.540;2023-06-05T07:27:41;10.82;;;5.78;;
64186;SDS011;50491;39.484;-8.540;2023-06-05T07:30:02;10.38;;;6.13;;
64186;SDS011;50491;39.484;-8.540;2023-06-05T07:32:03;9.90;;;5.60;;
64186;SDS011;50491;39.484;-8.540;2023-06-05T07:34:25;8.50;;;5.85;;
64186;SDS011;50491;39.484;-8.540;2023-06-05T07:36:26;16.77;;;6.65;;
64186;SDS011;50491;39.484;-8.540;2023-06-05T07:38:46;12.23;;;6.10;;
64186;SDS011;50491;39.484;-8.540;2023-06-05T07:40:50;11.07;;;5.95;;
64186;SDS011;50491;39.484;-8.540;2023-06-05T07:42:52;11.57;;;6.03;;
64186;SDS011;50491;39.484;-8.540;2023-06-05T07:44:53;10.85;;;6.47;;
64186;SDS011;50491;39.484;-8.540;2023-06-05T07:46:54;13.23;;;5.80;;
64186;SDS011;50491;39.484;-8.540;2023-06-05T07:48:55;9.00;;;5.70;;
64186;SDS011;50491;39.484;-8.540;2023-06-05T07:51:14;9.40;;;5.18;;
64186;SDS011;50491;39.484;-8.540;2023-06-05T07:53:35;9.73;;;5.57;;
64186;SDS011;50491;39.484;-8.540;2023-06-05T07:55:36;13.43;;;6.13;;
64186;SDS011;50491;39.484;-8.540;2023-06-05T07:57:55;11.57;;;6.00;;
64186;SDS011;50491;39.484;-8.540;2023-06-05T08:02:17;11.02;;;5.82;;
64186;SDS011;50491;39.484;-8.540;2023-06-05T08:04:18;12.98;;;6.03;;
64186;SDS011;50491;39.484;-8.540;2023-06-05T08:06:19;10.95;;;5.57;;
64186;SDS011;50491;39.484;-8.540;2023-06-05T08:08:40;11.10;;;5.97;;
64186;SDS011;50491;39.484;-8.540;2023-06-05T08:10:41;9.95;;;4.97;;
64186;SDS011;50491;39.484;-8.540;2023-06-05T08:13:02;12.82;;;5.18;;
64186;SDS011;50491;39.484;-8.540;2023-06-05T08:15:21;9.18;;;4.90;;
64186;SDS011;50491;39.484;-8.540;2023-06-05T08:17:22;9.27;;;5.72;;
64186;SDS011;50491;39.484;-8.540;2023-06-05T08:19:24;10.85;;;6.30;;
64186;SDS011;50491;39.484;-8.540;2023-06-05T08:21:24;11.13;;;5.78;;
64186;SDS011;50491;39.484;-8.540;2023-06-05T08:23:34;11.90;;;6.47;;
64186;SDS011;50491;39.484;-8.540;2023-06-05T08:25:34;8.88;;;5.72;;
64186;SDS011;50491;39.484;-8.540;2023-06-05T08:27:36;17.88;;;6.30;;
64186;SDS011;50491;39.484;-8.540;2023-06-05T08:29:36;9.60;;;6.00;;
64186;SDS011;50491;39.484;-8.540;2023-06-05T08:31:37;9.38;;;5.25;;
64186;SDS011;50491;39.484;-8.540;2023-06-05T08:33:38;9.07;;;5.32;;
64186;SDS011;50491;39.484;-8.540;2023-06-05T08:35:41;11.00;;;5.90;;
64186;SDS011;50491;39.484;-8.540;2023-06-05T08:37:42;10.50;;;5.82;;
64186;SDS011;50491;39.484;-8.540;2023-06-05T08:39:43;9.48;;;5.80;;
64186;SDS011;50491;39.484;-8.540;2023-06-05T08:41:45;10.63;;;5.38;;
64186;SDS011;50491;39.484;-8.540;2023-06-05T08:43:45;9.75;;;5.65;;
64186;SDS011;50491;39.484;-8.540;2023-06-05T08:46:05;7.97;;;4.95;;
64186;SDS011;50491;39.484;-8.540;2023-06-05T08:48:07;10.20;;;6.32;;
64186;SDS011;50491;39.484;-8.540;2023-06-05T08:50:10;10.80;;;5.78;;
64186;SDS011;50491;39.484;-8.540;2023-06-05T08:52:49;9.38;;;5.25;;
64186;SDS011;50491;39.484;-8.540;2023-06-05T08:55:10;13.02;;;5.25;;
64186;SDS011;50491;39.484;-8.540;2023-06-05T08:57:11;9.82;;;4.65;;
64186;SDS011;50491;39.484;-8.540;2023-06-05T08:59:11;11.50;;;5.70;;
64186;SDS011;50491;39.484;-8.540;2023-06-05T09:01:33;7.88;;;4.93;;
64186;SDS011;50491;39.484;-8.540;2023-06-05T09:03:53;8.75;;;5.15;;
64186;SDS011;50491;39.484;-8.540;2023-06-05T09:05:54;10.68;;;5.75;;
64186;SDS011;50491;39.484;-8.540;2023-06-05T09:07:55;9.77;;;5.80;;
64186;SDS011;50491;39.484;-8.540;2023-06-05T09:09:57;9.10;;;5.00;;
64186;SDS011;50491;39.484;-8.540;2023-06-05T09:12:04;11.13;;;5.50;;
64186;SDS011;50491;39.484;-8.540;2023-06-05T09:14:25;11.68;;;4.95;;
64186;SDS011;50491;39.484;-8.540;2023-06-05T09:16:40;10.25;;;5.53;;
64186;SDS011;50491;39.484;-8.540;2023-06-05T09:18:51;12.95;;;5.70;;
64186;SDS011;50491;39.484;-8.540;2023-06-05T09:21:14;8.77;;;6.38;;
64186;SDS011;50491;39.484;-8.540;2023-06-05T09:23:34;10.63;;;5.35;;
64186;SDS011;50491;39.484;-8.540;2023-06-05T09:25:43;9.10;;;5.40;;
64186;SDS011;50491;39.484;-8.540;2023-06-05T09:28:04;10.70;;;5.70;;
64186;SDS011;50491;39.484;-8.540;2023-06-05T09:30:06;10.93;;;5.95;;
64186;SDS011;50491;39.484;-8.540;2023-06-05T09:32:09;9.50;;;5.22;;
64186;SDS011;50491;39.484;-8.540;2023-06-05T09:34:24;10.88;;;5.07;;
64186;SDS011;50491;39.484;-8.540;2023-06-05T09:36:28;9.77;;;5.53;;
64186;SDS011;50491;39.484;-8.540;2023-06-05T09:38:35;10.23;;;6.13;;
64186;SDS011;50491;39.484;-8.540;2023-06-05T09:40:36;13.80;;;6.28;;
64186;SDS011;50491;39.484;-8.540;2023-06-05T09:42:56;13.13;;;5.80;;
64186;SDS011;50491;39.484;-8.540;2023-06-05T09:45:15;13.48;;;5.68;;
64186;SDS011;50491;39.484;-8.540;2023-06-05T09:47:16;13.82;;;6.25;;
64186;SDS011;50491;39.484;-8.540;2023-06-05T09:49:32;9.90;;;5.22;;
64186;SDS011;50491;39.484;-8.540;2023-06-05T09:52:04;8.07;;;4.93;;
64186;SDS011;50491;39.484;-8.540;2023-06-05T09:54:06;11.57;;;5.43;;
64186;SDS011;50491;39.484;-8.540;2023-06-05T09:56:09;10.70;;;5.03;;
64186;SDS011;50491;39.484;-8.540;2023-06-05T09:58:30;22.77;;;6.82;;
64186;SDS011;50491;39.484;-8.540;2023-06-05T10:00:53;11.23;;;5.45;;
64186;SDS011;50491;39.484;-8.540;2023-06-05T10:04:57;9.48;;;5.95;;
64186;SDS011;50491;39.484;-8.540;2023-06-05T10:07:03;10.05;;;5.35;;
64186;SDS011;50491;39.484;-8.540;2023-06-05T10:09:04;9.10;;;5.57;;
64186;SDS011;50491;39.484;-8.540;2023-06-05T10:11:26;9.50;;;5.55;;
64186;SDS011;50491;39.484;-8.540;2023-06-05T10:13:27;8.02;;;4.82;;
64186;SDS011;50491;39.484;-8.540;2023-06-05T10:15:48;11.75;;;6.18;;
64186;SDS011;50491;39.484;-8.540;2023-06-05T10:17:50;10.57;;;5.82;;
64186;SDS011;50491;39.484;-8.540;2023-06-05T10:19:51;16.20;;;5.88;;
64186;SDS011;50491;39.484;-8.540;2023-06-05T10:21:51;10.68;;;5.13;;
64186;SDS011;50491;39.484;-8.540;2023-06-05T10:24:00;9.18;;;5.75;;
64186;SDS011;50491;39.484;-8.540;2023-06-05T10:26:04;10.80;;;5.60;;
64186;SDS011;50491;39.484;-8.540;2023-06-05T10:39:08;11.55;;;5.88;;
64186;SDS011;50491;39.484;-8.540;2023-06-05T10:41:10;13.45;;;5.68;;
64186;SDS011;50491;39.484;-8.540;2023-06-05T10:43:35;10.02;;;5.18;;
64186;SDS011;50491;39.484;-8.540;2023-06-05T10:45:48;9.10;;;5.47;;
64186;SDS011;50491;39.484;-8.540;2023-06-05T10:48:11;11.05;;;6.03;;
64186;SDS011;50491;39.484;-8.540;2023-06-05T10:56:59;11.63;;;5.15;;
64186;SDS011;50491;39.484;-8.540;2023-06-05T10:59:30;7.95;;;4.68;;
64186;SDS011;50491;39.484;-8.540;2023-06-05T11:01:35;9.30;;;5.43;;
64186;SDS011;50491;39.484;-8.540;2023-06-05T11:04:01;9.35;;;5.03;;
64186;SDS011;50491;39.484;-8.540;2023-06-05T11:06:19;11.77;;;4.90;;
64186;SDS011;50491;39.484;-8.540;2023-06-05T11:08:22;8.55;;;5.13;;
64186;SDS011;50491;39.484;-8.540;2023-06-05T11:10:23;9.43;;;5.45;;
64186;SDS011;50491;39.484;-8.540;2023-06-05T11:12:24;10.55;;;5.13;;
64186;SDS011;50491;39.484;-8.540;2023-06-05T11:14:43;9.40;;;4.97;;
64186;SDS011;50491;39.484;-8.540;2023-06-05T11:16:48;8.40;;;5.35;;
64186;SDS011;50491;39.484;-8.540;2023-06-05T11:21:21;10.43;;;5.93;;
64186;SDS011;50491;39.484;-8.540;2023-06-05T11:23:33;7.88;;;4.85;;
64186;SDS011;50491;39.484;-8.540;2023-06-05T11:25:53;9.43;;;4.90;;
64186;SDS011;50491;39.484;-8.540;2023-06-05T11:27:58;8.70;;;5.32;;
64186;SDS011;50491;39.484;-8.540;2023-06-05T11:30:05;11.82;;;5.20;;
64186;SDS011;50491;39.484;-8.540;2023-06-05T11:32:26;10.32;;;5.10;;
64186;SDS011;50491;39.484;-8.540;2023-06-05T11:34:27;10.80;;;5.68;;
64186;SDS011;50491;39.484;-8.540;2023-06-05T11:36:48;11.63;;;4.88;;
64186;SDS011;50491;39.484;-8.540;2023-06-05T11:38:54;7.28;;;4.10;;
64186;SDS011;50491;39.484;-8.540;2023-06-05T11:40:57;8.55;;;4.40;;
64186;SDS011;50491;39.484;-8.540;2023-06-05T11:43:08;11.13;;;6.38;;
64186;SDS011;50491;39.484;-8.540;2023-06-05T11:45:12;8.05;;;4.72;;
64186;SDS011;50491;39.484;-8.540;2023-06-05T11:47:26;8.13;;;5.18;;
64186;SDS011;50491;39.484;-8.540;2023-06-05T11:49:49;9.55;;;5.47;;
64186;SDS011;50491;39.484;-8.540;2023-06-05T11:51:50;6.55;;;4.03;;
64186;SDS011;50491;39.484;-8.540;2023-06-05T11:53:51;7.70;;;4.38;;
64186;SDS011;50491;39.484;-8.540;2023-06-05T11:55:53;9.65;;;4.35;;
64186;SDS011;50491;39.484;-8.540;2023-06-05T11:58:06;7.57;;;4.57;;
64186;SDS011;50491;39.484;-8.540;2023-06-05T12:00:26;9.45;;;4.70;;
64186;SDS011;50491;39.484;-8.540;2023-06-05T12:02:26;7.07;;;4.63;;
64186;SDS011;50491;39.484;-8.540;2023-06-05T12:04:46;8.63;;;4.90;;
64186;SDS011;50491;39.484;-8.540;2023-06-05T12:06:47;9.48;;;4.55;;
64186;SDS011;50491;39.484;-8.540;2023-06-05T12:08:48;8.15;;;4.60;;
64186;SDS011;50491;39.484;-8.540;2023-06-05T12:10:49;7.18;;;4.18;;
64186;SDS011;50491;39.484;-8.540;2023-06-05T12:12:52;10.65;;;4.10;;
64186;SDS011;50491;39.484;-8.540;2023-06-05T12:15:18;6.68;;;3.58;;
64186;SDS011;50491;39.484;-8.540;2023-06-05T12:17:38;9.43;;;4.72;;
64186;SDS011;50491;39.484;-8.540;2023-06-05T12:19:56;8.15;;;4.75;;
64186;SDS011;50491;39.484;-8.540;2023-06-05T12:22:16;8.18;;;4.50;;
64186;SDS011;50491;39.484;-8.540;2023-06-05T12:24:35;10.18;;;4.72;;
64186;SDS011;50491;39.484;-8.540;2023-06-05T12:29:05;5.63;;;2.90;;
64186;SDS011;50491;39.484;-8.540;2023-06-05T12:31:34;4.93;;;3.10;;
64186;SDS011;50491;39.484;-8.540;2023-06-05T12:33:46;11.40;;;3.95;;
64186;SDS011;50491;39.484;-8.540;2023-06-05T12:35:48;4.85;;;3.40;;
64186;SDS011;50491;39.484;-8.540;2023-06-05T12:38:06;5.32;;;3.45;;
64186;SDS011;50491;39.484;-8.540;2023-06-05T12:40:09;7.43;;;3.88;;
64186;SDS011;50491;39.484;-8.540;2023-06-05T12:44:35;10.32;;;3.30;;
64186;SDS011;50491;39.484;-8.540;2023-06-05T12:46:36;5.78;;;3.30;;
64186;SDS011;50491;39.484;-8.540;2023-06-05T12:48:37;6.38;;;2.60;;
64186;SDS011;50491;39.484;-8.540;2023-06-05T12:50:38;8.60;;;3.08;;
64186;SDS011;50491;39.484;-8.540;2023-06-05T12:53:00;5.35;;;2.80;;
64186;SDS011;50491;39.484;-8.540;2023-06-05T12:55:20;5.25;;;2.75;;
64186;SDS011;50491;39.484;-8.540;2023-06-05T12:57:21;6.63;;;2.83;;
64186;SDS011;50491;39.484;-8.540;2023-06-05T12:59:40;3.90;;;2.40;;
64186;SDS011;50491;39.484;-8.540;2023-06-05T13:04:00;6.07;;;2.95;;
64186;SDS011;50491;39.484;-8.540;2023-06-05T13:06:01;5.15;;;2.78;;
64186;SDS011;50491;39.484;-8.540;2023-06-05T13:08:21;4.50;;;2.95;;
64186;SDS011;50491;39.484;-8.540;2023-06-05T13:10:40;4.97;;;3.13;;
64186;SDS011;50491;39.484;-8.540;2023-06-05T13:15:01;4.25;;;2.78;;
64186;SDS011;50491;39.484;-8.540;2023-06-05T13:17:03;4.53;;;2.75;;
64186;SDS011;50491;39.484;-8.540;2023-06-05T13:19:22;5.43;;;2.65;;
64186;SDS011;50491;39.484;-8.540;2023-06-05T13:21:23;6.63;;;2.88;;
64186;SDS011;50491;39.484;-8.540;2023-06-05T13:23:25;4.10;;;2.50;;
64186;SDS011;50491;39.484;-8.540;2023-06-05T13:25:27;5.40;;;3.08;;
64186;SDS011;50491;39.484;-8.540;2023-06-05T13:27:27;5.05;;;2.80;;
64186;SDS011;50491;39.484;-8.540;2023-06-05T13:29:46;7.05;;;2.97;;
64186;SDS011;50491;39.484;-8.540;2023-06-05T13:32:12;4.18;;;2.95;;
64186;SDS011;50491;39.484;-8.540;2023-06-05T13:34:31;6.20;;;2.90;;
64186;SDS011;50491;39.484;-8.540;2023-06-05T13:36:33;4.78;;;2.80;;
64186;SDS011;50491;39.484;-8.540;2023-06-05T13:38:34;4.60;;;2.60;;
64186;SDS011;50491;39.484;-8.540;2023-06-05T13:40:55;3.53;;;2.55;;
64186;SDS011;50491;39.484;-8.540;2023-06-05T13:42:56;3.58;;;2.17;;
64186;SDS011;50491;39.484;-8.540;2023-06-05T13:44:57;3.95;;;2.38;;
64186;SDS011;50491;39.484;-8.540;2023-06-05T13:46:57;5.32;;;2.40;;
64186;SDS011;50491;39.484;-8.540;2023-06-05T13:48:58;2.88;;;2.10;;
64186;SDS011;50491;39.484;-8.540;2023-06-05T13:51:00;2.40;;;1.23;;
64186;SDS011;50491;39.484;-8.540;2023-06-05T13:53:01;5.43;;;1.30;;